Time;durP1;ratioP1;P1;durP2;ratioP2;P2;SDS_P1;SDS_P2;PMS_P1;PMS_P2;Temp;Humidity;BMP_temperature;BMP_pressure;BME280_temperature;BME280_humidity;BME280_pressure;Samples;Min_cycle;Max_cycle;Signal;HPM_P1;HPM_P2
2020/12/09 00:00:47;;;;;;;28.35;18.48;;;;;;;;;;5057185;28;20494;-65
2020/12/09 00:03:13;;;;;;;27.23;18.10;;;;;;;;;;5056539;28;20037;-65
2020/12/09 00:05:39;;;;;;;30.40;20.38;;;;;;;;;;5057220;28;20104;-66
2020/12/09 00:08:05;;;;;;;27.67;19.98;;;;;;;;;;5056792;28;20028;-66
2020/12/09 00:10:31;;;;;;;27.65;19.73;;;;;;;;;;5060535;28;20095;-66
2020/12/09 00:12:57;;;;;;;28.08;18.88;;;;;;;;;;5056787;28;20503;-65
2020/12/09 00:15:22;;;;;;;27.50;18.80;;;;;;;;;;5056557;28;20024;-66
2020/12/09 00:17:49;;;;;;;23.95;19.45;;;;;;;;;;5056437;28;20137;-65
2020/12/09 00:20:14;;;;;;;26.27;17.35;;;;;;;;;;5056605;28;20021;-66
2020/12/09 00:22:40;;;;;;;25.48;16.80;;;;;;;;;;5056257;28;20029;-65
2020/12/09 00:25:05;;;;;;;30.38;19.52;;;;;;;;;;5055329;28;20379;-65
2020/12/09 00:27:32;;;;;;;32.13;20.05;;;;;;;;;;5056451;28;20102;-67
2020/12/09 00:30:01;;;;;;;23.50;16.17;;;;;;;;;;5056719;28;20025;-64
2020/12/09 00:32:26;;;;;;;28.38;17.10;;;;;;;;;;5056374;28;20048;-65
2020/12/09 00:34:52;;;;;;;25.27;17.80;;;;;;;;;;5056194;28;20025;-66
2020/12/09 00:37:18;;;;;;;26.38;18.75;;;;;;;;;;5056313;28;20040;-66
2020/12/09 00:39:43;;;;;;;28.00;16.10;;;;;;;;;;5054859;28;20020;-66
2020/12/09 00:42:09;;;;;;;23.88;16.08;;;;;;;;;;5054622;28;20039;-65
2020/12/09 00:44:35;;;;;;;24.00;16.38;;;;;;;;;;5055947;28;20018;-66
2020/12/09 00:47:02;;;;;;;25.60;17.38;;;;;;;;;;5038499;28;20087;-66
2020/12/09 00:49:28;;;;;;;29.17;16.75;;;;;;;;;;5054732;28;20466;-64
2020/12/09 00:51:57;;;;;;;26.27;16.83;;;;;;;;;;5055991;28;20033;-64
2020/12/09 00:54:22;;;;;;;26.17;17.90;;;;;;;;;;5054620;28;20017;-64
2020/12/09 00:56:48;;;;;;;24.92;16.92;;;;;;;;;;5054491;28;20029;-65
2020/12/09 00:59:15;;;;;;;25.15;17.65;;;;;;;;;;5054945;28;20025;-65
2020/12/09 01:01:42;;;;;;;28.08;17.95;;;;;;;;;;5054490;28;20111;-65
2020/12/09 01:04:14;;;;;;;25.40;17.42;;;;;;;;;;5054139;28;20368;-65
2020/12/09 01:06:39;;;;;;;25.90;16.38;;;;;;;;;;5054462;28;20052;-65
2020/12/09 01:09:05;;;;;;;23.08;15.65;;;;;;;;;;5055207;28;20052;-64
2020/12/09 01:11:31;;;;;;;22.88;17.65;;;;;;;;;;5054747;28;20032;-66
2020/12/09 01:13:57;;;;;;;30.50;17.58;;;;;;;;;;5055817;28;20037;-66
2020/12/09 01:16:23;;;;;;;24.35;15.23;;;;;;;;;;5055581;28;20036;-63
2020/12/09 01:18:49;;;;;;;30.95;17.80;;;;;;;;;;5055517;28;20013;-65
2020/12/09 01:21:14;;;;;;;28.60;17.33;;;;;;;;;;5055459;28;20035;-65
2020/12/09 01:23:39;;;;;;;29.35;17.65;;;;;;;;;;5055304;28;20111;-65
2020/12/09 01:26:09;;;;;;;30.00;16.98;;;;;;;;;;5055382;28;20024;-64
2020/12/09 01:28:35;;;;;;;30.08;16.73;;;;;;;;;;5054273;28;20146;-64
2020/12/09 01:31:01;;;;;;;32.05;17.73;;;;;;;;;;5055484;28;20108;-65
2020/12/09 01:33:27;;;;;;;30.08;17.42;;;;;;;;;;5055371;28;20032;-65
2020/12/09 01:35:52;;;;;;;30.73;18.05;;;;;;;;;;5053957;28;20029;-66
2020/12/09 01:38:18;;;;;;;28.25;15.68;;;;;;;;;;5055611;28;20094;-66
2020/12/09 01:40:43;;;;;;;24.58;16.80;;;;;;;;;;5055019;28;20072;-66
2020/12/09 01:43:09;;;;;;;26.95;16.25;;;;;;;;;;5054630;28;20009;-63
2020/12/09 01:45:34;;;;;;;29.13;15.35;;;;;;;;;;5054944;28;20032;-63
2020/12/09 01:48:00;;;;;;;22.45;14.57;;;;;;;;;;5054963;28;20025;-65
2020/12/09 01:50:25;;;;;;;22.55;15.52;;;;;;;;;;5054771;28;20017;-64
2020/12/09 01:52:51;;;;;;;22.15;14.80;;;;;;;;;;5054834;28;20467;-66
2020/12/09 01:55:16;;;;;;;27.92;16.90;;;;;;;;;;5054345;28;20040;-65
2020/12/09 01:57:42;;;;;;;22.05;14.45;;;;;;;;;;5055219;28;20025;-66
2020/12/09 02:00:08;;;;;;;24.25;14.90;;;;;;;;;;5054951;28;20033;-65
2020/12/09 02:02:43;;;;;;;27.30;15.48;;;;;;;;;;5054539;28;20021;-66
2020/12/09 02:05:13;;;;;;;22.77;14.88;;;;;;;;;;5054561;28;20023;-66
2020/12/09 02:07:38;;;;;;;20.65;14.50;;;;;;;;;;5054814;28;20037;-66
2020/12/09 02:10:06;;;;;;;24.05;15.23;;;;;;;;;;5053831;28;20048;-66
2020/12/09 02:12:33;;;;;;;20.63;14.65;;;;;;;;;;5054317;28;20087;-66
2020/12/09 02:14:59;;;;;;;24.90;15.23;;;;;;;;;;5054782;28;20032;-65
2020/12/09 02:17:25;;;;;;;21.45;14.07;;;;;;;;;;5036599;28;20367;-65
2020/12/09 02:19:50;;;;;;;19.55;13.88;;;;;;;;;;5054444;28;20508;-66
2020/12/09 02:22:16;;;;;;;20.58;14.45;;;;;;;;;;5054473;28;20049;-65
2020/12/09 02:24:42;;;;;;;19.65;13.13;;;;;;;;;;5054086;28;20073;-65
2020/12/09 02:27:07;;;;;;;22.88;14.15;;;;;;;;;;5054413;28;20018;-65
2020/12/09 02:29:33;;;;;;;18.15;13.15;;;;;;;;;;5054404;28;20101;-65
2020/12/09 02:31:59;;;;;;;21.00;13.15;;;;;;;;;;5054178;28;20025;-65
2020/12/09 02:34:24;;;;;;;18.50;13.73;;;;;;;;;;5054566;28;20032;-65
2020/12/09 02:36:50;;;;;;;17.73;13.13;;;;;;;;;;5054163;28;20020;-65
2020/12/09 02:39:16;;;;;;;20.70;13.70;;;;;;;;;;5053490;28;20044;-65
2020/12/09 02:41:41;;;;;;;23.70;15.45;;;;;;;;;;5054127;28;20044;-65
2020/12/09 02:44:06;;;;;;;23.25;14.57;;;;;;;;;;5054170;28;20463;-65
2020/12/09 02:46:32;;;;;;;22.45;15.27;;;;;;;;;;5053833;28;20017;-65
2020/12/09 02:48:57;;;;;;;20.65;13.35;;;;;;;;;;5053872;28;20037;-64
2020/12/09 02:51:23;;;;;;;19.98;14.43;;;;;;;;;;5053877;28;20022;-65
2020/12/09 02:53:49;;;;;;;19.83;13.40;;;;;;;;;;5053468;28;20040;-65
2020/12/09 02:56:16;;;;;;;18.85;13.52;;;;;;;;;;5053583;28;20071;-64
2020/12/09 02:58:42;;;;;;;18.90;13.15;;;;;;;;;;5053723;28;20496;-65
2020/12/09 03:01:07;;;;;;;19.80;13.40;;;;;;;;;;5053721;28;20025;-65
2020/12/09 03:03:33;;;;;;;21.40;15.02;;;;;;;;;;5052206;28;20033;-63
2020/12/09 03:05:59;;;;;;;19.13;14.02;;;;;;;;;;5053657;28;20025;-64
2020/12/09 03:08:24;;;;;;;20.80;13.90;;;;;;;;;;5052470;28;20025;-65
2020/12/09 03:10:50;;;;;;;22.30;15.70;;;;;;;;;;5053648;28;20079;-65
2020/12/09 03:13:15;;;;;;;20.27;13.15;;;;;;;;;;5053529;28;20025;-66
2020/12/09 03:15:42;;;;;;;22.65;14.82;;;;;;;;;;5053579;28;20017;-65
2020/12/09 03:18:07;;;;;;;21.52;14.88;;;;;;;;;;5052213;28;20033;-65
2020/12/09 03:20:35;;;;;;;19.52;14.38;;;;;;;;;;5053435;28;20035;-64
2020/12/09 03:23:02;;;;;;;20.75;15.27;;;;;;;;;;5053198;28;20032;-66
2020/12/09 03:25:27;;;;;;;21.70;14.45;;;;;;;;;;5053773;28;20012;-66
2020/12/09 03:27:53;;;;;;;19.33;14.18;;;;;;;;;;5053478;28;20021;-65
2020/12/09 03:30:18;;;;;;;19.15;14.98;;;;;;;;;;5053654;28;20032;-65
2020/12/09 03:32:44;;;;;;;20.98;15.30;;;;;;;;;;5052852;28;20039;-64
2020/12/09 03:35:09;;;;;;;20.30;15.25;;;;;;;;;;5053506;28;20071;-65
2020/12/09 03:37:34;;;;;;;21.50;13.73;;;;;;;;;;5053369;28;20056;-64
2020/12/09 03:40:00;;;;;;;18.33;13.98;;;;;;;;;;5053224;28;20051;-65
2020/12/09 03:42:25;;;;;;;18.60;15.13;;;;;;;;;;5053294;28;20029;-65
2020/12/09 03:44:51;;;;;;;19.25;13.75;;;;;;;;;;5053294;28;20506;-65
2020/12/09 03:47:16;;;;;;;20.10;14.27;;;;;;;;;;5052981;28;20037;-64
2020/12/09 03:49:42;;;;;;;21.58;13.85;;;;;;;;;;5053151;28;20021;-64
2020/12/09 03:52:07;;;;;;;20.58;14.18;;;;;;;;;;5068805;28;20075;-66
2020/12/09 03:54:33;;;;;;;22.27;14.98;;;;;;;;;;5053549;28;20017;-65
2020/12/09 03:57:01;;;;;;;20.98;16.10;;;;;;;;;;5053094;28;20041;-67
2020/12/09 03:59:27;;;;;;;94.68;52.83;;;;;;;;;;5053262;28;20029;-65
2020/12/09 04:01:52;;;;;;;50.33;33.42;;;;;;;;;;5052775;28;20021;-63
2020/12/09 04:04:18;;;;;;;21.88;15.00;;;;;;;;;;5052844;28;20464;-63
2020/12/09 04:06:43;;;;;;;20.23;15.02;;;;;;;;;;5053174;28;20033;-64
2020/12/09 04:09:09;;;;;;;20.27;15.65;;;;;;;;;;5052740;28;20034;-64
2020/12/09 04:11:34;;;;;;;26.60;20.48;;;;;;;;;;5053401;28;20029;-64
2020/12/09 04:14:00;;;;;;;27.60;18.90;;;;;;;;;;5052904;28;20040;-65
2020/12/09 04:16:25;;;;;;;25.00;16.33;;;;;;;;;;5053015;28;20044;-65
2020/12/09 04:18:51;;;;;;;28.33;17.45;;;;;;;;;;5054263;28;20023;-65
2020/12/09 04:21:16;;;;;;;21.23;16.60;;;;;;;;;;5055534;28;20036;-65
2020/12/09 04:23:42;;;;;;;18.98;14.60;;;;;;;;;;5056873;28;20368;-65
2020/12/09 04:26:07;;;;;;;20.63;15.35;;;;;;;;;;5056615;28;20027;-65
2020/12/09 04:28:33;;;;;;;21.25;14.73;;;;;;;;;;5056081;28;20104;-65
2020/12/09 04:30:58;;;;;;;22.30;17.10;;;;;;;;;;5056420;28;20033;-65
2020/12/09 04:33:27;;;;;;;25.83;17.17;;;;;;;;;;5056495;28;20048;-65
2020/12/09 04:35:54;;;;;;;24.33;16.95;;;;;;;;;;5056227;28;20395;-65
2020/12/09 04:38:19;;;;;;;25.50;17.70;;;;;;;;;;5056506;28;20498;-66
2020/12/09 04:40:45;;;;;;;26.65;14.30;;;;;;;;;;5054956;28;20029;-66
2020/12/09 04:43:10;;;;;;;25.45;15.88;;;;;;;;;;5056329;28;20074;-66
2020/12/09 04:45:38;;;;;;;23.65;15.07;;;;;;;;;;5056008;28;20033;-66
2020/12/09 04:48:11;;;;;;;22.65;17.25;;;;;;;;;;5056133;28;20013;-66
2020/12/09 04:50:56;;;;;;;27.73;17.30;;;;;;;;;;5054738;28;20032;-63
2020/12/09 04:53:26;;;;;;;26.00;15.70;;;;;;;;;;5055056;28;20099;-63
2020/12/09 04:55:53;;;;;;;21.60;14.77;;;;;;;;;;5056242;28;20082;-64
2020/12/09 04:58:39;;;;;;;23.58;16.35;;;;;;;;;;5056099;28;20059;-65
2020/12/09 05:01:09;;;;;;;22.55;16.40;;;;;;;;;;5055786;28;20045;-66
2020/12/09 05:03:47;;;;;;;24.23;15.68;;;;;;;;;;5055778;28;20025;-66
2020/12/09 05:06:17;;;;;;;24.35;16.05;;;;;;;;;;5055355;28;20103;-66
2020/12/09 05:08:48;;;;;;;23.93;16.47;;;;;;;;;;5054197;28;20036;-67
2020/12/09 05:11:14;;;;;;;28.05;19.48;;;;;;;;;;5053635;28;20770;-67
2020/12/09 05:13:42;;;;;;;23.48;15.73;;;;;;;;;;5055351;28;20116;-67
2020/12/09 05:16:11;;;;;;;24.00;18.73;;;;;;;;;;5055163;28;20487;-67
2020/12/09 05:18:38;;;;;;;22.48;15.82;;;;;;;;;;5054768;28;20431;-67
2020/12/09 05:21:08;;;;;;;25.90;19.00;;;;;;;;;;5055174;28;20032;-67
2020/12/09 05:23:34;;;;;;;27.53;16.60;;;;;;;;;;5054748;28;20056;-67
2020/12/09 05:26:00;;;;;;;24.55;16.55;;;;;;;;;;5055448;28;20036;-67
2020/12/09 05:28:25;;;;;;;22.60;16.15;;;;;;;;;;5055182;28;20017;-67
2020/12/09 05:30:51;;;;;;;26.42;17.55;;;;;;;;;;5054170;28;20017;-67
2020/12/09 05:33:18;;;;;;;24.63;17.42;;;;;;;;;;5055199;28;20072;-67
2020/12/09 05:35:57;;;;;;;23.38;15.80;;;;;;;;;;5055378;28;20024;-67
2020/12/09 05:38:23;;;;;;;24.70;16.58;;;;;;;;;;5055164;28;20111;-66
2020/12/09 05:40:48;;;;;;;23.67;15.50;;;;;;;;;;5054032;28;20167;-67
2020/12/09 05:43:15;;;;;;;22.15;16.00;;;;;;;;;;5055012;28;20040;-66
2020/12/09 05:45:41;;;;;;;22.75;15.95;;;;;;;;;;5055268;28;20397;-67
2020/12/09 05:48:15;;;;;;;24.17;17.35;;;;;;;;;;5053950;28;20104;-67
2020/12/09 05:50:57;;;;;;;29.13;23.15;;;;;;;;;;5055046;28;20392;-67
2020/12/09 05:53:26;;;;;;;23.50;16.27;;;;;;;;;;5055082;28;20033;-66
2020/12/09 05:55:54;;;;;;;23.50;16.65;;;;;;;;;;5054679;28;20033;-67
2020/12/09 05:58:24;;;;;;;25.05;17.42;;;;;;;;;;5054873;28;20574;-67
2020/12/09 06:01:23;;;;;;;19.13;14.68;;;;;;;;;;5054439;28;20032;-67
2020/12/09 06:03:53;;;;;;;21.17;14.60;;;;;;;;;;5030871;28;20067;-67
2020/12/09 06:06:20;;;;;;;21.53;15.20;;;;;;;;;;5054649;28;20041;-67
2020/12/09 06:08:47;;;;;;;21.77;14.95;;;;;;;;;;5054419;28;20274;-67
2020/12/09 06:11:13;;;;;;;21.55;16.48;;;;;;;;;;5054779;28;20051;-67
2020/12/09 06:13:40;;;;;;;21.65;16.17;;;;;;;;;;5054681;28;20062;-67
2020/12/09 06:16:07;;;;;;;23.17;15.50;;;;;;;;;;5054499;28;20029;-67
2020/12/09 06:18:33;;;;;;;24.20;15.60;;;;;;;;;;5053359;28;20467;-66
2020/12/09 06:20:59;;;;;;;18.25;13.65;;;;;;;;;;5054458;28;20078;-67
2020/12/09 06:23:27;;;;;;;24.38;15.63;;;;;;;;;;5054206;28;20017;-69
2020/12/09 06:25:53;;;;;;;21.65;15.65;;;;;;;;;;5053308;28;20040;-66
2020/12/09 06:28:20;;;;;;;20.42;15.68;;;;;;;;;;5054083;28;20104;-66
2020/12/09 06:30:45;;;;;;;19.23;15.77;;;;;;;;;;5054226;28;20053;-66
2020/12/09 06:33:12;;;;;;;25.17;15.75;;;;;;;;;;5053777;28;20041;-66
2020/12/09 06:35:38;;;;;;;19.60;14.13;;;;;;;;;;5054154;28;20040;-66
2020/12/09 06:38:07;;;;;;;20.35;14.88;;;;;;;;;;5053990;28;20055;-66
2020/12/09 06:40:33;;;;;;;19.70;15.57;;;;;;;;;;5053902;28;20041;-66
2020/12/09 06:43:13;;;;;;;17.38;12.90;;;;;;;;;;5052551;28;20111;-66
2020/12/09 06:45:40;;;;;;;17.90;13.23;;;;;;;;;;5053866;28;20116;-65
2020/12/09 06:48:12;;;;;;;18.30;13.40;;;;;;;;;;5054195;28;20028;-66
2020/12/09 06:50:38;;;;;;;22.83;15.48;;;;;;;;;;5053823;28;20051;-66
2020/12/09 06:53:13;;;;;;;19.63;15.88;;;;;;;;;;5053744;28;20024;-66
2020/12/09 06:55:38;;;;;;;38.90;18.85;;;;;;;;;;5052297;28;20037;-66
2020/12/09 06:58:24;;;;;;;28.15;15.95;;;;;;;;;;5053938;28;20081;-66
2020/12/09 07:01:00;;;;;;;19.77;14.10;;;;;;;;;;5053248;28;20049;-66
2020/12/09 07:03:29;;;;;;;24.65;16.17;;;;;;;;;;5053328;28;20036;-66
2020/12/09 07:05:56;;;;;;;21.25;16.00;;;;;;;;;;5052374;28;20037;-66
2020/12/09 07:08:21;;;;;;;18.27;14.18;;;;;;;;;;5052711;28;20032;-66
2020/12/09 07:10:47;;;;;;;20.30;14.60;;;;;;;;;;5053382;28;20044;-66
2020/12/09 07:13:14;;;;;;;19.42;13.60;;;;;;;;;;5053282;28;20067;-65
2020/12/09 07:15:47;;;;;;;25.60;16.35;;;;;;;;;;5053826;28;20059;-65
2020/12/09 07:18:13;;;;;;;21.05;14.40;;;;;;;;;;5052173;28;20029;-66
2020/12/09 07:20:40;;;;;;;20.27;15.60;;;;;;;;;;5039288;28;20029;-65
2020/12/09 07:23:06;;;;;;;20.73;13.85;;;;;;;;;;5052134;28;20387;-65
2020/12/09 07:25:32;;;;;;;21.95;14.35;;;;;;;;;;5037026;28;20029;-66
2020/12/09 07:27:58;;;;;;;27.08;15.82;;;;;;;;;;5032446;28;20029;-66
2020/12/09 07:30:23;;;;;;;25.95;16.58;;;;;;;;;;5033675;28;20018;-66
2020/12/09 07:32:50;;;;;;;23.17;15.75;;;;;;;;;;5032444;28;20041;-65
2020/12/09 07:35:17;;;;;;;21.40;14.65;;;;;;;;;;5033431;28;20036;-65
2020/12/09 07:37:45;;;;;;;20.08;14.85;;;;;;;;;;5033375;28;20120;-66
2020/12/09 07:40:17;;;;;;;22.05;14.10;;;;;;;;;;5033645;28;20017;-65
2020/12/09 07:42:43;;;;;;;21.90;16.25;;;;;;;;;;5033387;28;20480;-66
2020/12/09 07:45:11;;;;;;;24.48;15.85;;;;;;;;;;5033384;28;20105;-66
2020/12/09 07:47:37;;;;;;;23.98;14.85;;;;;;;;;;5033506;28;20124;-65
2020/12/09 07:50:03;;;;;;;20.38;14.38;;;;;;;;;;5039415;28;20057;-64
2020/12/09 07:52:30;;;;;;;21.73;14.20;;;;;;;;;;5042026;28;20151;-64
2020/12/09 07:54:58;;;;;;;19.63;13.85;;;;;;;;;;5043403;28;20036;-64
2020/12/09 07:57:28;;;;;;;23.75;15.75;;;;;;;;;;5045776;28;20112;-64
2020/12/09 07:59:55;;;;;;;19.95;13.10;;;;;;;;;;5050031;28;20032;-64
2020/12/09 08:02:24;;;;;;;20.80;14.70;;;;;;;;;;5057297;28;20104;-65
2020/12/09 08:05:10;;;;;;;26.27;16.60;;;;;;;;;;5038454;28;20117;-64
2020/12/09 08:07:55;;;;;;;21.92;15.95;;;;;;;;;;5037309;28;20417;-65
2020/12/09 08:10:22;;;;;;;18.20;13.15;;;;;;;;;;5036419;28;20044;-66
2020/12/09 08:12:48;;;;;;;20.67;14.55;;;;;;;;;;5037114;28;20025;-66
2020/12/09 08:15:13;;;;;;;19.70;15.35;;;;;;;;;;5037097;28;20037;-66
2020/12/09 08:17:45;;;;;;;33.08;20.77;;;;;;;;;;5037001;28;20040;-66
2020/12/09 08:20:10;;;;;;;24.33;16.60;;;;;;;;;;5036870;28;20036;-66
2020/12/09 08:22:54;;;;;;;38.88;31.02;;;;;;;;;;5036803;28;20367;-64
2020/12/09 08:25:22;;;;;;;42.47;23.83;;;;;;;;;;5036668;28;20368;-64
2020/12/09 08:27:48;;;;;;;46.60;32.13;;;;;;;;;;5041635;28;20028;-65
2020/12/09 08:30:25;;;;;;;44.42;35.85;;;;;;;;;;5035297;28;20033;-64
2020/12/09 08:32:54;;;;;;;33.95;23.55;;;;;;;;;;5036818;28;20025;-65
2020/12/09 08:35:20;;;;;;;36.65;20.77;;;;;;;;;;5036673;28;20017;-64
2020/12/09 08:37:45;;;;;;;56.33;31.85;;;;;;;;;;5036320;28;20345;-65
2020/12/09 08:40:11;;;;;;;44.05;26.48;;;;;;;;;;5036193;28;20032;-65
2020/12/09 08:42:36;;;;;;;22.42;15.73;;;;;;;;;;5036145;28;20037;-65
2020/12/09 08:45:02;;;;;;;37.25;26.77;;;;;;;;;;5036189;28;20028;-64
2020/12/09 08:47:28;;;;;;;28.45;18.85;;;;;;;;;;5036198;28;20109;-64
2020/12/09 08:49:54;;;;;;;23.67;16.42;;;;;;;;;;5036648;28;20017;-65
2020/12/09 08:52:19;;;;;;;24.35;15.52;;;;;;;;;;5036492;28;20037;-65
2020/12/09 08:54:45;;;;;;;27.90;17.33;;;;;;;;;;5036013;28;20029;-65
2020/12/09 08:57:10;;;;;;;21.08;15.15;;;;;;;;;;5036450;28;20025;-64
2020/12/09 08:59:36;;;;;;;27.38;17.25;;;;;;;;;;5035658;28;20056;-64
2020/12/09 09:02:01;;;;;;;25.40;17.02;;;;;;;;;;5036214;28;20341;-64
2020/12/09 09:04:30;;;;;;;29.70;19.83;;;;;;;;;;5035659;28;20041;-64
2020/12/09 09:06:57;;;;;;;21.95;15.65;;;;;;;;;;5035181;28;20041;-64
2020/12/09 09:09:24;;;;;;;18.67;13.93;;;;;;;;;;5035136;28;20053;-64
2020/12/09 09:11:49;;;;;;;21.40;14.48;;;;;;;;;;5058915;28;20084;-63
2020/12/09 09:14:15;;;;;;;30.45;21.67;;;;;;;;;;5043230;28;20052;-63
2020/12/09 09:16:41;;;;;;;27.60;18.58;;;;;;;;;;5040893;28;20042;-63
2020/12/09 09:19:08;;;;;;;24.05;16.25;;;;;;;;;;5035872;28;20037;-64
2020/12/09 09:21:33;;;;;;;27.70;18.27;;;;;;;;;;5052676;28;20411;-64
2020/12/09 09:23:59;;;;;;;24.45;17.55;;;;;;;;;;5055501;28;20021;-62
2020/12/09 09:26:27;;;;;;;22.77;17.13;;;;;;;;;;5052922;28;20060;-62
2020/12/09 09:28:52;;;;;;;28.45;18.63;;;;;;;;;;5042578;28;20071;-63
2020/12/09 09:31:18;;;;;;;26.88;18.23;;;;;;;;;;5051050;28;20115;-63
2020/12/09 09:33:43;;;;;;;24.35;17.23;;;;;;;;;;5035476;28;20021;-63
2020/12/09 09:36:09;;;;;;;25.48;16.75;;;;;;;;;;5035319;28;20443;-63
2020/12/09 09:38:34;;;;;;;29.63;18.30;;;;;;;;;;5035632;28;20056;-63
2020/12/09 09:41:00;;;;;;;23.73;16.20;;;;;;;;;;5035024;28;20436;-63
2020/12/09 09:43:25;;;;;;;28.13;19.50;;;;;;;;;;5044619;28;20029;-64
2020/12/09 09:45:52;;;;;;;31.92;22.67;;;;;;;;;;5053954;28;20025;-63
2020/12/09 09:48:17;;;;;;;26.15;17.42;;;;;;;;;;5054799;28;20021;-70
2020/12/09 09:50:43;;;;;;;29.40;19.77;;;;;;;;;;5055015;28;20379;-69
2020/12/09 09:53:09;;;;;;;36.58;23.52;;;;;;;;;;5055279;28;20027;-69
2020/12/09 09:55:36;;;;;;;34.67;23.48;;;;;;;;;;5054457;28;20440;-69
2020/12/09 09:58:01;;;;;;;44.28;29.13;;;;;;;;;;5055005;28;20013;-69
2020/12/09 10:00:28;;;;;;;22.58;14.82;;;;;;;;;;5055208;28;20033;-69
2020/12/09 10:02:56;;;;;;;31.73;18.83;;;;;;;;;;5037374;28;20052;-69
2020/12/09 10:05:24;;;;;;;24.23;16.30;;;;;;;;;;5054573;28;20033;-69
2020/12/09 10:07:50;;;;;;;28.48;18.55;;;;;;;;;;5037534;28;20029;-69
2020/12/09 10:10:16;;;;;;;39.00;25.45;;;;;;;;;;5052692;28;20041;-68
2020/12/09 10:12:41;;;;;;;41.00;27.02;;;;;;;;;;5054908;28;20543;-69
2020/12/09 10:15:07;;;;;;;30.70;24.50;;;;;;;;;;5054745;28;20009;-69
2020/12/09 10:17:34;;;;;;;59.35;41.40;;;;;;;;;;5054180;28;20120;-69
2020/12/09 10:20:00;;;;;;;25.55;18.00;;;;;;;;;;5054352;28;20033;-69
2020/12/09 10:22:27;;;;;;;35.90;24.33;;;;;;;;;;5054574;28;20132;-70
2020/12/09 10:24:53;;;;;;;37.72;30.10;;;;;;;;;;5054306;28;20025;-69
2020/12/09 10:27:20;;;;;;;44.47;36.65;;;;;;;;;;5054721;28;20483;-69
2020/12/09 10:29:46;;;;;;;43.72;28.88;;;;;;;;;;5054284;28;20064;-69
2020/12/09 10:32:11;;;;;;;47.40;33.63;;;;;;;;;;5036108;28;20072;-66
2020/12/09 10:34:40;;;;;;;39.60;28.58;;;;;;;;;;5054314;28;20028;-66
2020/12/09 10:37:06;;;;;;;48.22;35.65;;;;;;;;;;5054328;28;20029;-66
2020/12/09 10:39:31;;;;;;;30.67;20.45;;;;;;;;;;5052932;28;20025;-66
2020/12/09 10:41:57;;;;;;;27.05;18.67;;;;;;;;;;5054261;28;20025;-67
2020/12/09 10:44:22;;;;;;;44.35;31.73;;;;;;;;;;5053916;28;20068;-67
2020/12/09 10:46:48;;;;;;;57.50;40.85;;;;;;;;;;5054017;28;20029;-66
2020/12/09 10:49:17;;;;;;;58.95;36.17;;;;;;;;;;5054169;28;20036;-67
2020/12/09 10:51:50;;;;;;;106.22;74.60;;;;;;;;;;5053433;28;20155;-65
2020/12/09 10:54:16;;;;;;;28.13;20.33;;;;;;;;;;5053707;28;20403;-65
2020/12/09 10:56:43;;;;;;;29.40;21.42;;;;;;;;;;5052721;28;20033;-65
2020/12/09 10:59:08;;;;;;;30.83;22.75;;;;;;;;;;5053750;28;20039;-65
2020/12/09 11:01:34;;;;;;;28.73;20.15;;;;;;;;;;5053413;28;20029;-65
2020/12/09 11:04:01;;;;;;;31.65;21.48;;;;;;;;;;5052214;28;20099;-65
2020/12/09 11:06:29;;;;;;;33.85;22.95;;;;;;;;;;5035650;28;20033;-65
2020/12/09 11:08:57;;;;;;;28.10;20.00;;;;;;;;;;5053627;28;20029;-65
2020/12/09 11:11:27;;;;;;;32.10;22.17;;;;;;;;;;5053641;28;20040;-65
2020/12/09 11:13:53;;;;;;;86.53;67.10;;;;;;;;;;5052696;28;20041;-64
2020/12/09 11:16:21;;;;;;;47.45;31.13;;;;;;;;;;5053412;28;20074;-64
2020/12/09 11:18:48;;;;;;;55.22;40.13;;;;;;;;;;5053216;28;20432;-67
2020/12/09 11:21:31;;;;;;;46.67;28.77;;;;;;;;;;5053092;28;20107;-65
2020/12/09 11:23:59;;;;;;;30.52;21.40;;;;;;;;;;5053472;28;20065;-65
2020/12/09 11:26:25;;;;;;;53.67;40.28;;;;;;;;;;5053469;28;20395;-65
2020/12/09 11:28:50;;;;;;;35.65;26.88;;;;;;;;;;5051740;28;20033;-65
2020/12/09 11:31:23;;;;;;;33.67;21.63;;;;;;;;;;5051086;28;20120;-68
2020/12/09 11:33:50;;;;;;;31.90;22.60;;;;;;;;;;5052563;28;20028;-68
2020/12/09 11:36:19;;;;;;;29.98;20.92;;;;;;;;;;5031803;28;20045;-68
2020/12/09 11:38:45;;;;;;;41.97;26.70;;;;;;;;;;5031987;28;20445;-68
2020/12/09 11:41:13;;;;;;;34.28;21.27;;;;;;;;;;5065467;28;20472;-67
2020/12/09 11:43:38;;;;;;;34.00;24.45;;;;;;;;;;5031882;28;20041;-68
2020/12/09 11:46:03;;;;;;;37.45;24.17;;;;;;;;;;5033608;28;20423;-67
2020/12/09 11:48:30;;;;;;;31.48;20.55;;;;;;;;;;5036625;28;20025;-68
2020/12/09 11:50:56;;;;;;;28.88;21.15;;;;;;;;;;5053143;28;20100;-68
2020/12/09 11:53:22;;;;;;;34.60;23.08;;;;;;;;;;5052724;28;20106;-68
2020/12/09 11:55:47;;;;;;;29.10;20.77;;;;;;;;;;5052441;28;20103;-68
2020/12/09 11:58:13;;;;;;;36.28;26.50;;;;;;;;;;5052439;28;20545;-68
2020/12/09 12:00:38;;;;;;;36.83;25.77;;;;;;;;;;5051850;28;20029;-68
2020/12/09 12:03:05;;;;;;;34.17;25.27;;;;;;;;;;5052896;28;20360;-68
2020/12/09 12:05:33;;;;;;;28.70;20.58;;;;;;;;;;5052671;28;20025;-67
2020/12/09 12:07:59;;;;;;;34.20;22.83;;;;;;;;;;5051502;28;20033;-66
2020/12/09 12:10:24;;;;;;;32.22;22.77;;;;;;;;;;5052281;28;20040;-66
2020/12/09 12:12:50;;;;;;;44.00;28.20;;;;;;;;;;5049118;28;20464;-66
2020/12/09 12:15:15;;;;;;;35.22;25.60;;;;;;;;;;5052473;28;20048;-66
2020/12/09 12:17:40;;;;;;;40.55;26.45;;;;;;;;;;5052864;28;20495;-66
2020/12/09 12:20:06;;;;;;;33.45;23.15;;;;;;;;;;5053059;28;20036;-67
2020/12/09 12:22:32;;;;;;;37.42;22.60;;;;;;;;;;5052726;28;20145;-66
2020/12/09 12:24:57;;;;;;;41.40;31.15;;;;;;;;;;5052821;28;20024;-66
2020/12/09 12:27:24;;;;;;;35.05;27.10;;;;;;;;;;5052668;28;20029;-66
2020/12/09 12:29:50;;;;;;;49.42;34.72;;;;;;;;;;5052772;28;20111;-66
2020/12/09 12:32:15;;;;;;;45.03;28.83;;;;;;;;;;5053046;28;20033;-66
2020/12/09 12:34:43;;;;;;;38.25;26.38;;;;;;;;;;5052877;28;20029;-66
2020/12/09 12:37:08;;;;;;;41.75;28.35;;;;;;;;;;5052860;28;20025;-66
2020/12/09 12:39:34;;;;;;;41.55;28.35;;;;;;;;;;5053260;28;20033;-67
2020/12/09 12:41:59;;;;;;;43.67;29.58;;;;;;;;;;5056329;28;20017;-67
2020/12/09 12:44:25;;;;;;;35.40;26.42;;;;;;;;;;5056541;28;20036;-66
2020/12/09 12:46:50;;;;;;;31.08;22.52;;;;;;;;;;5055699;28;20096;-67
2020/12/09 12:49:17;;;;;;;31.15;22.20;;;;;;;;;;5055500;28;20021;-68
2020/12/09 12:51:50;;;;;;;31.35;22.92;;;;;;;;;;5055475;28;20024;-68
2020/12/09 12:54:21;;;;;;;38.92;24.50;;;;;;;;;;5054508;28;20033;-67
2020/12/09 12:56:47;;;;;;;38.33;25.00;;;;;;;;;;5055675;28;20067;-67
2020/12/09 12:59:12;;;;;;;39.25;24.30;;;;;;;;;;5055676;28;20036;-67
2020/12/09 13:01:37;;;;;;;46.08;26.77;;;;;;;;;;5055711;28;20017;-67
2020/12/09 13:04:04;;;;;;;39.65;25.15;;;;;;;;;;5055466;28;20025;-67
2020/12/09 13:06:29;;;;;;;37.88;26.65;;;;;;;;;;5055569;28;20495;-67
2020/12/09 13:08:55;;;;;;;33.78;22.77;;;;;;;;;;5054212;28;20028;-66
2020/12/09 13:11:25;;;;;;;37.15;25.58;;;;;;;;;;5055448;28;20385;-66
2020/12/09 13:13:53;;;;;;;34.30;23.58;;;;;;;;;;5055426;28;20040;-66
2020/12/09 13:16:18;;;;;;;30.92;21.25;;;;;;;;;;5055356;28;20021;-67
2020/12/09 13:18:44;;;;;;;34.60;22.92;;;;;;;;;;5055161;28;20406;-67
2020/12/09 13:21:09;;;;;;;39.70;25.67;;;;;;;;;;5054038;28;20478;-66
2020/12/09 13:23:37;;;;;;;39.65;26.42;;;;;;;;;;5055108;28;20098;-67
2020/12/09 13:26:02;;;;;;;31.77;24.55;;;;;;;;;;5055174;28;20020;-67
2020/12/09 13:28:28;;;;;;;32.75;22.00;;;;;;;;;;5055017;28;20108;-66
2020/12/09 13:30:54;;;;;;;39.15;24.63;;;;;;;;;;5054793;28;20091;-67
2020/12/09 13:33:19;;;;;;;42.53;28.27;;;;;;;;;;5054985;28;20406;-66
2020/12/09 13:35:45;;;;;;;37.78;26.67;;;;;;;;;;5055168;28;20029;-67
2020/12/09 13:38:11;;;;;;;36.88;24.50;;;;;;;;;;5054886;28;20032;-66
2020/12/09 13:40:37;;;;;;;41.15;25.98;;;;;;;;;;5054787;28;20086;-66
2020/12/09 13:43:02;;;;;;;43.13;26.55;;;;;;;;;;5054832;28;20025;-66
2020/12/09 13:45:28;;;;;;;53.38;39.70;;;;;;;;;;5054865;28;20064;-66
2020/12/09 13:47:53;;;;;;;42.50;29.58;;;;;;;;;;5054736;28;20459;-66
2020/12/09 13:50:19;;;;;;;40.00;27.08;;;;;;;;;;5054634;28;20487;-66
2020/12/09 13:52:45;;;;;;;36.03;25.35;;;;;;;;;;5054051;28;20013;-66
2020/12/09 13:55:10;;;;;;;45.92;29.75;;;;;;;;;;5054728;28;20458;-66
2020/12/09 13:57:36;;;;;;;59.67;36.50;;;;;;;;;;5054698;28;20123;-66
2020/12/09 14:00:03;;;;;;;43.60;29.50;;;;;;;;;;5054501;28;20013;-66
2020/12/09 14:02:31;;;;;;;59.80;39.25;;;;;;;;;;5054521;28;20416;-66
2020/12/09 14:04:57;;;;;;;40.47;25.90;;;;;;;;;;5054202;28;20364;-66
2020/12/09 14:07:22;;;;;;;56.78;38.58;;;;;;;;;;5053231;28;20044;-66
2020/12/09 14:09:50;;;;;;;44.95;30.55;;;;;;;;;;5052790;28;20053;-66
2020/12/09 14:12:16;;;;;;;35.97;24.08;;;;;;;;;;5054400;28;20386;-66
2020/12/09 14:14:43;;;;;;;38.35;24.98;;;;;;;;;;5054426;28;20037;-67